createdAt,value
2017-11-06T00:02:00.772Z,12.83
2017-11-06T00:04:28.341Z,8.50
2017-11-06T00:06:56.655Z,9.33
2017-11-06T00:09:24.209Z,11.00
2017-11-06T00:11:51.758Z,16.40
2017-11-06T00:14:19.337Z,9.03
2017-11-06T00:16:46.886Z,8.40
2017-11-06T00:19:14.586Z,12.03
2017-11-06T00:21:42.138Z,12.90
2017-11-06T00:24:09.682Z,10.20
2017-11-06T00:26:37.258Z,12.37
2017-11-06T00:29:04.804Z,18.77
2017-11-06T00:31:32.374Z,9.27
2017-11-06T00:33:59.941Z,11.57
2017-11-06T00:36:27.541Z,10.30
2017-11-06T00:38:55.867Z,7.90
2017-11-06T00:41:23.427Z,12.03
2017-11-06T00:43:51.000Z,11.03
2017-11-06T00:46:18.549Z,10.13
2017-11-06T00:48:46.113Z,12.68
2017-11-06T00:51:13.674Z,8.07
2017-11-06T00:53:41.236Z,12.80
2017-11-06T00:56:08.890Z,10.73
2017-11-06T00:58:36.447Z,10.63
2017-11-06T01:01:04.782Z,8.55
2017-11-06T01:03:33.106Z,10.10
2017-11-06T01:06:00.658Z,7.20
2017-11-06T01:08:28.210Z,7.90
2017-11-06T01:10:55.766Z,8.53
2017-11-06T01:13:23.322Z,13.03
2017-11-06T01:15:50.877Z,9.25
2017-11-06T01:18:22.461Z,10.25
2017-11-06T01:20:50.020Z,11.18
2017-11-06T01:23:17.582Z,8.13
2017-11-06T01:25:45.138Z,11.60
2017-11-06T01:28:12.696Z,8.43
2017-11-06T01:30:40.260Z,10.57
2017-11-06T01:33:07.797Z,12.48
2017-11-06T01:35:36.141Z,12.50
2017-11-06T01:38:03.708Z,9.30
2017-11-06T01:40:31.266Z,9.00
2017-11-06T01:42:58.818Z,14.57
2017-11-06T01:45:26.461Z,11.63
2017-11-06T01:47:54.015Z,14.25
2017-11-06T01:50:21.590Z,11.38
2017-11-06T01:52:49.163Z,10.20
2017-11-06T01:55:16.806Z,12.53
2017-11-06T01:57:44.392Z,11.10
2017-11-06T02:00:11.936Z,9.50
2017-11-06T02:02:39.501Z,10.13
2017-11-06T02:05:07.052Z,8.50
2017-11-06T02:07:34.586Z,9.90
2017-11-06T02:10:02.138Z,9.77
2017-11-06T02:12:29.712Z,11.93
2017-11-06T02:14:57.265Z,12.48
2017-11-06T02:17:24.841Z,13.47
2017-11-06T02:19:52.428Z,9.85
2017-11-06T02:22:19.999Z,12.65
2017-11-06T02:24:47.566Z,12.23
2017-11-06T02:27:15.132Z,9.98
2017-11-06T02:29:42.718Z,10.00
2017-11-06T02:32:10.276Z,15.32
2017-11-06T02:34:38.586Z,12.10
2017-11-06T02:37:06.185Z,14.35
2017-11-06T02:39:33.749Z,9.88
2017-11-06T02:42:01.339Z,12.07
2017-11-06T02:44:28.883Z,10.50
2017-11-06T02:46:57.216Z,8.75
2017-11-06T02:49:24.797Z,15.25
2017-11-06T02:51:52.360Z,10.17
2017-11-06T02:54:19.899Z,9.30
2017-11-06T02:56:47.471Z,12.27
2017-11-06T02:59:15.877Z,9.25
2017-11-06T03:01:44.186Z,8.40
2017-11-06T03:04:11.744Z,18.12
2017-11-06T03:06:39.296Z,9.43
2017-11-06T03:09:06.861Z,7.25
2017-11-06T03:11:35.187Z,9.50
2017-11-06T03:14:02.751Z,9.37
2017-11-06T03:16:30.694Z,8.85
2017-11-06T03:18:58.269Z,9.57
2017-11-06T03:21:25.858Z,7.32
2017-11-06T03:23:53.422Z,10.85
2017-11-06T03:26:21.753Z,10.68
2017-11-06T03:28:49.277Z,10.47
2017-11-06T03:31:16.834Z,10.57
2017-11-06T03:33:45.318Z,12.20
2017-11-06T03:36:12.893Z,8.43
2017-11-06T03:38:40.444Z,10.23
2017-11-06T03:41:08.004Z,21.15
2017-11-06T03:43:35.567Z,12.75
2017-11-06T03:46:03.133Z,13.95
2017-11-06T03:48:30.689Z,12.13
2017-11-06T03:50:58.226Z,9.20
2017-11-06T03:53:26.556Z,11.25
2017-11-06T03:55:54.171Z,10.55
2017-11-06T03:58:22.508Z,8.65
2017-11-06T04:00:50.072Z,10.88
2017-11-06T04:03:17.635Z,10.32
2017-11-06T04:05:45.201Z,9.45
2017-11-06T04:08:12.790Z,7.05
2017-11-06T04:10:41.120Z,10.85
2017-11-06T04:13:08.675Z,12.88
2017-11-06T04:15:36.986Z,11.80
2017-11-06T04:18:04.554Z,12.43
2017-11-06T04:20:32.908Z,10.75
2017-11-06T04:23:00.514Z,11.12
2017-11-06T04:25:28.096Z,11.05
2017-11-06T04:27:55.649Z,10.45
2017-11-06T04:30:23.235Z,12.52
2017-11-06T04:32:50.807Z,7.93
2017-11-06T04:35:18.390Z,11.55
2017-11-06T04:37:46.717Z,8.50
2017-11-06T04:40:14.283Z,9.88
2017-11-06T04:42:41.869Z,7.78
2017-11-06T04:45:09.427Z,13.03
2017-11-06T04:47:36.991Z,7.97
2017-11-06T04:50:04.554Z,10.23
2017-11-06T04:52:32.121Z,15.65
2017-11-06T04:54:59.670Z,9.98
2017-11-06T04:57:27.221Z,12.25
2017-11-06T04:59:54.805Z,9.02
2017-11-06T05:02:22.341Z,9.07
2017-11-06T05:04:49.916Z,13.40
2017-11-06T05:07:17.485Z,9.68
2017-11-06T05:09:45.058Z,12.68
2017-11-06T05:12:13.365Z,9.60
2017-11-06T05:14:40.934Z,8.50
2017-11-06T05:17:08.487Z,11.75
2017-11-06T05:19:36.026Z,12.18
2017-11-06T05:22:03.566Z,12.23
2017-11-06T05:24:31.990Z,9.30
2017-11-06T05:26:59.571Z,8.15
2017-11-06T05:29:27.133Z,7.45
2017-11-06T05:31:54.692Z,9.95
2017-11-06T05:34:22.277Z,15.23
2017-11-06T05:36:49.850Z,7.80
2017-11-06T05:39:18.189Z,10.70
2017-11-06T05:41:45.754Z,13.60
2017-11-06T05:44:13.330Z,17.85
2017-11-06T05:46:40.904Z,18.60
2017-11-06T05:49:09.205Z,21.05
2017-11-06T05:51:36.750Z,17.52
2017-11-06T05:54:05.110Z,15.57
2017-11-06T05:56:32.675Z,13.25
2017-11-06T05:59:00.237Z,15.52
2017-11-06T06:01:28.569Z,13.52
2017-11-06T06:03:56.146Z,14.05
2017-11-06T06:06:23.710Z,18.10
2017-11-06T06:08:52.278Z,16.90
2017-11-06T06:11:19.846Z,22.42
2017-11-06T06:13:47.411Z,18.62
2017-11-06T06:16:14.968Z,14.75
2017-11-06T06:18:42.525Z,13.25
2017-11-06T06:21:10.123Z,14.95
2017-11-06T06:23:38.436Z,11.88
2017-11-06T06:26:06.016Z,12.57
2017-11-06T06:28:33.592Z,11.45
2017-11-06T06:31:01.154Z,11.35
2017-11-06T06:33:28.705Z,11.45
2017-11-06T06:35:56.262Z,11.73
2017-11-06T06:38:24.001Z,13.50
2017-11-06T06:40:51.566Z,13.50
2017-11-06T06:43:19.157Z,12.82
2017-11-06T06:45:46.740Z,13.93
2017-11-06T06:48:14.353Z,15.02
2017-11-06T06:50:41.905Z,11.60
2017-11-06T06:53:09.467Z,16.58
2017-11-06T06:55:37.026Z,14.63
2017-11-06T06:58:04.615Z,15.38
2017-11-06T07:00:32.178Z,14.95
2017-11-06T07:02:59.745Z,11.23
2017-11-06T07:05:28.246Z,16.45
2017-11-06T07:07:56.582Z,11.63
2017-11-06T07:10:24.142Z,13.07
2017-11-06T07:12:51.734Z,13.13
2017-11-06T07:15:19.281Z,11.85
2017-11-06T07:17:46.877Z,11.57
2017-11-06T07:20:15.174Z,9.38
2017-11-06T07:22:42.721Z,15.63
2017-11-06T07:25:11.051Z,11.10
2017-11-06T07:27:38.586Z,11.45
2017-11-06T07:30:06.152Z,11.75
2017-11-06T07:32:33.691Z,18.52
2017-11-06T07:35:01.249Z,10.75
2017-11-06T07:37:28.821Z,19.95
2017-11-06T07:39:56.368Z,12.77
2017-11-06T07:42:23.949Z,10.90
2017-11-06T07:44:51.499Z,13.20
2017-11-06T07:47:19.067Z,17.55
2017-11-06T07:49:46.610Z,13.48
2017-11-06T07:52:14.168Z,13.82
2017-11-06T07:54:41.725Z,16.02
2017-11-06T07:57:10.501Z,13.07
2017-11-06T07:59:38.833Z,20.02
2017-11-06T08:02:06.405Z,16.58
2017-11-06T08:04:33.984Z,21.92
2017-11-06T08:07:02.315Z,21.55
2017-11-06T08:09:30.783Z,19.85
2017-11-06T08:11:58.345Z,16.83
2017-11-06T08:14:25.908Z,14.30
2017-11-06T08:16:53.449Z,16.37
2017-11-06T08:19:24.566Z,17.80
2017-11-06T08:21:53.592Z,16.27
2017-11-06T08:24:22.248Z,14.32
2017-11-06T08:26:49.806Z,17.15
2017-11-06T08:29:17.350Z,15.90
2017-11-06T08:31:44.962Z,13.73
2017-11-06T08:34:13.302Z,19.05
2017-11-06T08:36:40.868Z,14.07
2017-11-06T08:39:08.569Z,16.25
2017-11-06T08:41:36.922Z,19.30
2017-11-06T08:44:04.494Z,23.12
2017-11-06T08:46:32.304Z,18.40
2017-11-06T08:48:59.972Z,18.75
2017-11-06T08:51:27.660Z,15.98
2017-11-06T08:53:55.231Z,15.43
2017-11-06T08:56:22.881Z,17.90
2017-11-06T08:58:50.452Z,15.85
2017-11-06T09:01:18.045Z,19.00
2017-11-06T09:03:46.551Z,22.50
2017-11-06T09:06:14.156Z,25.55
2017-11-06T09:08:41.739Z,28.58
2017-11-06T09:11:10.073Z,18.75
2017-11-06T09:13:37.653Z,15.70
2017-11-06T09:16:05.219Z,19.60
2017-11-06T09:18:32.794Z,21.87
2017-11-06T09:21:00.377Z,21.42
2017-11-06T09:23:27.961Z,17.15
2017-11-06T09:28:31.687Z,21.67
2017-11-06T09:30:59.248Z,20.27
2017-11-06T09:33:26.806Z,23.38
2017-11-06T09:35:54.369Z,23.70
2017-11-06T09:38:21.936Z,27.95
2017-11-06T09:40:49.479Z,28.33
2017-11-06T09:43:17.042Z,23.98
2017-11-06T09:45:44.624Z,29.42
2017-11-06T09:48:12.207Z,24.95
2017-11-06T09:50:39.791Z,27.13
2017-11-06T09:53:08.129Z,28.52
2017-11-06T09:55:35.684Z,22.80
2017-11-06T09:58:03.255Z,22.37
2017-11-06T10:00:30.848Z,23.30
2017-11-06T10:02:59.175Z,27.13
2017-11-06T10:05:26.730Z,26.03
2017-11-06T10:07:54.285Z,29.63
2017-11-06T10:10:21.839Z,29.03
2017-11-06T10:12:49.443Z,24.30
2017-11-06T10:15:17.017Z,23.70
2017-11-06T10:17:44.602Z,26.80
2017-11-06T10:20:13.005Z,29.63
2017-11-06T10:22:40.588Z,22.23
2017-11-06T10:25:08.160Z,24.77
2017-11-06T10:27:35.766Z,26.73
2017-11-06T10:30:04.077Z,21.40
2017-11-06T10:32:31.652Z,20.70
2017-11-06T10:34:59.221Z,23.20
2017-11-06T10:37:26.762Z,19.53
2017-11-06T10:39:54.337Z,20.97
2017-11-06T10:42:21.887Z,25.10
2017-11-06T10:44:49.450Z,21.67
2017-11-06T10:47:16.984Z,19.03
2017-11-06T10:49:44.593Z,18.23
2017-11-06T10:52:12.146Z,17.50
2017-11-06T10:54:39.725Z,20.30
2017-11-06T10:57:08.058Z,20.50
2017-11-06T10:59:35.672Z,14.93
2017-11-06T11:02:03.998Z,15.00
2017-11-06T11:04:31.537Z,12.50
2017-11-06T11:06:59.884Z,12.00
2017-11-06T11:09:28.247Z,16.17
2017-11-06T11:11:55.819Z,11.20
2017-11-06T11:14:24.142Z,17.60
2017-11-06T11:16:51.742Z,16.83
2017-11-06T11:19:19.332Z,13.60
2017-11-06T11:21:47.663Z,14.90
2017-11-06T11:24:15.256Z,16.27
2017-11-06T11:26:43.621Z,15.53
2017-11-06T11:29:11.181Z,12.77
2017-11-06T11:31:38.747Z,14.33
2017-11-06T11:34:07.303Z,15.13
2017-11-06T11:36:34.872Z,12.03
2017-11-06T11:39:03.774Z,13.40
2017-11-06T11:41:32.105Z,14.07
2017-11-06T11:43:59.716Z,12.07
2017-11-06T11:46:27.300Z,13.10
2017-11-06T11:48:55.659Z,12.97
2017-11-06T11:51:23.213Z,10.83
2017-11-06T11:53:50.811Z,10.73
2017-11-06T11:56:19.146Z,11.03
2017-11-06T11:58:46.694Z,11.87
2017-11-06T12:01:15.130Z,12.30
2017-11-06T12:03:42.708Z,11.43
2017-11-06T12:06:15.241Z,11.73
2017-11-06T12:08:43.572Z,10.50
2017-11-06T12:11:11.873Z,11.50
2017-11-06T12:13:39.434Z,12.20
2017-11-06T12:16:07.002Z,8.90
2017-11-06T12:18:34.540Z,9.27
2017-11-06T12:21:02.108Z,15.00
2017-11-06T12:23:29.823Z,12.63
2017-11-06T12:25:58.447Z,9.40
2017-11-06T12:28:26.040Z,8.20
2017-11-06T12:30:53.652Z,10.10
2017-11-06T12:33:21.232Z,11.63
2017-11-06T12:35:48.780Z,9.33
2017-11-06T12:38:16.365Z,10.80
2017-11-06T12:40:43.941Z,10.10
2017-11-06T12:43:11.505Z,8.83
2017-11-06T12:45:39.081Z,11.67
2017-11-06T12:48:07.966Z,12.67
2017-11-06T12:50:36.296Z,14.70
2017-11-06T12:53:03.870Z,11.13
2017-11-06T12:55:31.631Z,11.97
2017-11-06T12:57:59.182Z,11.03
2017-11-06T13:00:26.770Z,11.23
2017-11-06T13:02:54.361Z,13.33
2017-11-06T13:05:22.710Z,15.60
2017-11-06T13:07:50.253Z,16.83
2017-11-06T13:10:18.196Z,20.33
2017-11-06T13:12:45.863Z,10.97
2017-11-06T13:15:13.416Z,11.20
2017-11-06T13:17:41.009Z,17.17
2017-11-06T13:20:08.968Z,17.20
2017-11-06T13:22:36.529Z,12.30
2017-11-06T13:25:04.069Z,13.67
2017-11-06T13:27:31.654Z,14.20
2017-11-06T13:29:59.222Z,17.93
2017-11-06T13:32:26.801Z,13.70
2017-11-06T13:34:54.374Z,10.87
2017-11-06T13:37:22.841Z,11.10
2017-11-06T13:39:50.487Z,10.10
2017-11-06T13:42:18.073Z,11.93
2017-11-06T13:44:46.393Z,8.03
2017-11-06T13:47:14.102Z,10.60
2017-11-06T13:49:41.669Z,10.73
2017-11-06T13:52:09.213Z,11.47
2017-11-06T13:54:37.065Z,13.23
2017-11-06T13:57:04.651Z,8.50
2017-11-06T13:59:32.993Z,12.40
2017-11-06T14:02:00.561Z,23.00
2017-11-06T14:04:28.168Z,13.90
2017-11-06T14:06:56.497Z,8.90
2017-11-06T14:09:24.067Z,10.23
2017-11-06T14:11:51.650Z,15.03
2017-11-06T14:14:19.219Z,17.10
2017-11-06T14:16:47.560Z,11.10
2017-11-06T14:19:15.159Z,12.30
2017-11-06T14:21:43.486Z,8.30
2017-11-06T14:24:11.052Z,12.30
2017-11-06T14:26:39.381Z,10.03
2017-11-06T14:29:07.734Z,11.70
2017-11-06T14:31:35.344Z,10.40
2017-11-06T14:34:02.916Z,9.93
2017-11-06T14:36:30.853Z,8.93
2017-11-06T14:38:59.198Z,12.60
2017-11-06T14:41:26.819Z,10.37
2017-11-06T14:43:54.385Z,9.50
2017-11-06T14:46:21.971Z,8.13
2017-11-06T14:48:49.526Z,9.23
2017-11-06T14:51:17.086Z,9.10
2017-11-06T14:53:44.634Z,7.57
2017-11-06T14:56:12.201Z,6.90
2017-11-06T14:58:39.765Z,6.10
2017-11-06T15:01:07.378Z,6.80
2017-11-06T15:03:35.701Z,8.77
2017-11-06T15:06:03.267Z,8.47
2017-11-06T15:08:30.813Z,10.80
2017-11-06T15:10:58.396Z,5.73
2017-11-06T15:13:25.988Z,6.60
2017-11-06T15:15:54.321Z,6.63
2017-11-06T15:18:23.339Z,8.30
2017-11-06T15:20:50.926Z,9.70
2017-11-06T15:23:19.734Z,5.93
2017-11-06T15:25:47.861Z,6.57
2017-11-06T15:28:17.268Z,9.00
2017-11-06T15:30:45.540Z,5.70
2017-11-06T15:33:13.462Z,7.40
2017-11-06T15:35:41.421Z,10.03
2017-11-06T15:38:08.979Z,9.43
2017-11-06T15:40:36.522Z,11.90
2017-11-06T15:43:04.875Z,13.33
2017-11-06T15:45:32.433Z,11.03
2017-11-06T15:48:00.017Z,7.87
2017-11-06T15:50:28.334Z,9.23
2017-11-06T15:52:55.912Z,9.23
2017-11-06T15:55:23.513Z,14.30
2017-11-06T15:57:51.894Z,11.97
2017-11-06T16:00:20.268Z,16.33
2017-11-06T16:02:47.834Z,20.30
2017-11-06T16:05:16.149Z,14.87
2017-11-06T16:07:43.690Z,13.80
2017-11-06T16:10:11.291Z,11.70
2017-11-06T16:12:38.837Z,10.60
2017-11-06T16:15:06.402Z,10.07
2017-11-06T16:17:33.969Z,10.10
2017-11-06T16:20:01.564Z,9.30
2017-11-06T16:22:29.112Z,7.20
2017-11-06T16:24:56.664Z,7.17
2017-11-06T16:27:24.238Z,11.67
2017-11-06T16:29:51.805Z,11.33
2017-11-06T16:32:19.379Z,9.30
2017-11-06T16:34:47.690Z,9.50
2017-11-06T16:37:15.249Z,11.23
2017-11-06T16:39:42.806Z,10.53
2017-11-06T16:42:10.387Z,9.33
2017-11-06T16:44:37.976Z,13.97
2017-11-06T16:47:05.665Z,11.00
2017-11-06T16:49:34.007Z,12.80
2017-11-06T16:52:01.568Z,12.20
2017-11-06T16:54:29.144Z,12.60
2017-11-06T16:56:56.755Z,14.43
2017-11-06T16:59:24.327Z,9.73
2017-11-06T17:01:51.892Z,12.70
2017-11-06T17:04:19.496Z,10.03
2017-11-06T17:06:47.840Z,13.70
2017-11-06T17:09:16.370Z,13.13
2017-11-06T17:11:44.721Z,14.13
2017-11-06T17:14:12.299Z,12.27
2017-11-06T17:16:41.336Z,14.13
2017-11-06T17:19:08.906Z,11.00
2017-11-06T17:21:37.289Z,11.63
2017-11-06T17:24:05.992Z,14.10
2017-11-06T17:26:33.602Z,12.77
2017-11-06T17:29:01.243Z,14.10
2017-11-06T17:31:29.594Z,13.30
2017-11-06T17:33:57.184Z,14.07
2017-11-06T17:36:25.536Z,16.03
2017-11-06T17:38:53.128Z,24.13
2017-11-06T17:41:21.441Z,14.33
2017-11-06T17:43:49.010Z,11.63
2017-11-06T17:46:16.558Z,13.90
2017-11-06T17:48:44.137Z,11.67
2017-11-06T17:51:11.693Z,18.53
2017-11-06T17:53:39.413Z,10.47
2017-11-06T17:56:07.734Z,14.03
2017-11-06T17:58:35.298Z,12.80
2017-11-06T18:01:02.848Z,9.83
2017-11-06T18:03:30.426Z,13.93
2017-11-06T18:06:03.925Z,18.17
2017-11-06T18:08:44.156Z,16.73
2017-11-06T18:11:18.284Z,28.83
2017-11-06T18:13:46.645Z,27.03
2017-11-06T18:16:19.476Z,17.70
2017-11-06T18:18:50.573Z,14.10
2017-11-06T18:21:20.129Z,12.77
2017-11-06T18:23:47.685Z,13.20
2017-11-06T18:26:15.275Z,12.73
2017-11-06T18:28:44.214Z,11.80
2017-11-06T18:31:12.790Z,27.60
2017-11-06T18:33:41.173Z,23.20
2017-11-06T18:36:08.767Z,24.00
2017-11-06T18:38:36.342Z,23.57
2017-11-06T18:41:03.930Z,27.77
2017-11-06T18:43:31.499Z,19.53
2017-11-06T18:45:59.327Z,19.80
2017-11-06T18:48:27.697Z,21.10
2017-11-06T18:50:55.279Z,15.23
2017-11-06T18:53:36.715Z,15.80
2017-11-06T18:56:12.151Z,14.00
2017-11-06T18:58:42.178Z,16.60
2017-11-06T19:01:14.318Z,27.47
2017-11-06T19:03:41.951Z,29.80
2017-11-06T19:06:13.575Z,32.40
2017-11-06T19:08:43.513Z,29.33
2017-11-06T19:11:12.005Z,27.70
2017-11-06T19:13:57.590Z,20.37
2017-11-06T19:16:25.948Z,18.80
2017-11-06T19:18:53.562Z,16.33
2017-11-06T19:21:21.176Z,14.03
2017-11-06T19:23:48.810Z,15.55
2017-11-06T19:26:16.501Z,18.40
2017-11-06T19:28:44.270Z,19.57
2017-11-06T19:31:12.677Z,13.87
2017-11-06T19:33:40.253Z,12.13
2017-11-06T19:36:07.836Z,15.37
2017-11-06T19:38:35.405Z,16.80
2017-11-06T19:41:03.025Z,18.97
2017-11-06T19:43:30.715Z,22.50
2017-11-06T19:45:58.294Z,15.67
2017-11-06T19:48:25.880Z,14.57
2017-11-06T19:50:53.414Z,10.13
2017-11-06T19:53:21.124Z,10.60
2017-11-06T19:55:48.720Z,8.50
2017-11-06T19:58:16.279Z,13.00
2017-11-06T20:00:43.827Z,10.83
2017-11-06T20:03:11.634Z,42.63
2017-11-06T20:05:39.496Z,13.90
2017-11-06T20:08:07.378Z,12.77
2017-11-06T20:10:35.290Z,18.30
2017-11-06T20:13:03.910Z,18.40
2017-11-06T20:15:32.573Z,15.43
2017-11-06T20:18:00.452Z,15.93
2017-11-06T20:20:28.332Z,20.80
2017-11-06T20:22:58.570Z,21.70
2017-11-06T20:25:26.529Z,21.80
2017-11-06T20:27:55.194Z,28.33
2017-11-06T20:30:23.053Z,28.70
2017-11-06T20:32:50.964Z,28.40
2017-11-06T20:35:18.888Z,23.40
2017-11-06T20:37:46.805Z,23.07
2017-11-06T20:40:14.694Z,25.37
2017-11-06T20:42:42.602Z,23.37
2017-11-06T20:45:10.480Z,22.03
2017-11-06T20:47:39.498Z,27.90
2017-11-06T20:50:07.646Z,25.70
2017-11-06T20:52:36.405Z,26.45
2017-11-06T20:55:04.271Z,29.97
2017-11-06T20:57:31.851Z,36.80
2017-11-06T20:59:59.422Z,22.10
2017-11-06T21:02:27.009Z,19.27
2017-11-06T21:04:54.580Z,29.92
2017-11-06T21:07:22.919Z,25.15
2017-11-06T21:09:50.477Z,21.33
2017-11-06T21:12:18.021Z,22.05
2017-11-06T21:14:45.592Z,24.70
2017-11-06T21:17:13.150Z,34.63
2017-11-06T21:19:40.720Z,19.52
2017-11-06T21:22:08.305Z,19.55
2017-11-06T21:24:35.870Z,18.05
2017-11-06T21:27:03.453Z,21.20
2017-11-06T21:29:37.549Z,20.12
2017-11-06T21:32:05.915Z,21.25
2017-11-06T21:34:33.482Z,18.62
2017-11-06T21:37:01.214Z,20.20
2017-11-06T21:39:28.789Z,21.58
2017-11-06T21:41:56.350Z,19.80
2017-11-06T21:44:23.961Z,19.83
2017-11-06T21:46:51.522Z,19.92
2017-11-06T21:49:19.127Z,20.00
2017-11-06T21:51:46.692Z,18.90
2017-11-06T21:54:14.250Z,17.77
2017-11-06T21:56:41.834Z,17.40
2017-11-06T21:59:09.419Z,20.27
2017-11-06T22:01:36.985Z,20.25
2017-11-06T22:04:04.580Z,20.05
2017-11-06T22:06:32.138Z,18.45
2017-11-06T22:08:59.705Z,15.70
2017-11-06T22:11:27.311Z,15.27
2017-11-06T22:13:55.630Z,14.50
2017-11-06T22:16:23.201Z,17.70
2017-11-06T22:18:50.798Z,18.50
2017-11-06T22:21:18.374Z,16.13
2017-11-06T22:23:46.716Z,15.77
2017-11-06T22:26:14.318Z,22.92
2017-11-06T22:28:42.681Z,16.65
2017-11-06T22:31:11.031Z,19.17
2017-11-06T22:33:38.593Z,23.17
2017-11-06T22:36:06.174Z,20.37
2017-11-06T22:38:33.749Z,21.35
2017-11-06T22:41:02.089Z,19.12
2017-11-06T22:43:29.668Z,21.62
2017-11-06T22:45:57.238Z,28.42
2017-11-06T22:48:25.581Z,21.40
2017-11-06T22:50:53.158Z,24.05
2017-11-06T22:53:20.743Z,19.02
2017-11-06T22:55:49.090Z,24.40
2017-11-06T22:58:16.648Z,25.92
2017-11-06T23:00:44.207Z,26.12
2017-11-06T23:03:11.808Z,22.65
2017-11-06T23:05:40.154Z,19.65
2017-11-06T23:08:07.720Z,22.67
2017-11-06T23:10:35.337Z,22.10
2017-11-06T23:13:02.904Z,21.60
2017-11-06T23:15:30.482Z,17.70
2017-11-06T23:17:58.107Z,20.73
2017-11-06T23:20:25.694Z,20.15
2017-11-06T23:22:53.269Z,21.45
2017-11-06T23:25:21.618Z,19.95
2017-11-06T23:27:49.221Z,23.65
2017-11-06T23:30:16.811Z,23.48
2017-11-06T23:32:45.220Z,19.65
2017-11-06T23:35:12.845Z,18.87
2017-11-06T23:37:41.214Z,18.42
2017-11-06T23:40:08.771Z,21.37
2017-11-06T23:42:36.332Z,17.35
2017-11-06T23:45:03.884Z,16.05
2017-11-06T23:47:31.476Z,18.08
2017-11-06T23:49:59.830Z,17.58
2017-11-06T23:52:27.434Z,18.58
2017-11-06T23:54:55.010Z,17.52
2017-11-06T23:57:22.546Z,20.12
2017-11-06T23:59:50.130Z,16.27
